Time;durP1;ratioP1;P1;durP2;ratioP2;P2;SDS_P1;SDS_P2;PMS_P1;PMS_P2;Temp;Humidity;BMP_temperature;BMP_pressure;BME280_temperature;BME280_humidity;BME280_pressure;Samples;Min_cycle;Max_cycle;Signal;HPM_P1;HPM_P2
2021/10/16 00:00:14;;;;;;;13.95;5.13;;;;;;;;;;5098320;27;20197;-79
2021/10/16 00:02:43;;;;;;;7.55;4.65;;;;;;;;;;5110275;28;20212;-81
2021/10/16 00:05:21;;;;;;;11.77;5.45;;;;;;;;;;5107648;28;20221;-81
2021/10/16 00:07:48;;;;;;;15.38;5.22;;;;;;;;;;5100421;28;20257;-81
2021/10/16 00:10:15;;;;;;;16.98;5.07;;;;;;;;;;5110843;28;20196;-81
2021/10/16 00:12:42;;;;;;;17.08;5.40;;;;;;;;;;5099631;27;20215;-79
2021/10/16 00:15:10;;;;;;;10.88;4.90;;;;;;;;;;5116742;27;20661;-81
2021/10/16 00:17:37;;;;;;;10.82;4.22;;;;;;;;;;5105424;28;20211;-80
2021/10/16 00:20:06;;;;;;;10.38;4.70;;;;;;;;;;5090296;28;20203;-81
2021/10/16 00:22:33;;;;;;;10.25;4.70;;;;;;;;;;5088773;28;20271;-79
2021/10/16 00:25:01;;;;;;;11.23;4.95;;;;;;;;;;5104755;28;20223;-81
2021/10/16 00:27:28;;;;;;;7.75;4.93;;;;;;;;;;5100721;28;20767;-81
2021/10/16 00:29:55;;;;;;;10.02;4.40;;;;;;;;;;5107203;27;20177;-81
2021/10/16 00:32:22;;;;;;;7.10;4.05;;;;;;;;;;5116471;27;20185;-80
2021/10/16 00:34:50;;;;;;;9.35;4.22;;;;;;;;;;5128622;27;20576;-79
2021/10/16 00:37:18;;;;;;;10.57;5.20;;;;;;;;;;5119138;27;20189;-81
2021/10/16 00:39:46;;;;;;;8.80;4.70;;;;;;;;;;5110004;28;20188;-81
2021/10/16 00:42:13;;;;;;;8.95;4.63;;;;;;;;;;5110514;28;20197;-81
2021/10/16 00:44:40;;;;;;;14.77;5.38;;;;;;;;;;5107009;27;21569;-81
2021/10/16 00:47:07;;;;;;;12.35;4.38;;;;;;;;;;5113459;27;20184;-79
2021/10/16 00:49:34;;;;;;;10.45;5.57;;;;;;;;;;5095759;27;20188;-79
2021/10/16 00:52:02;;;;;;;15.77;5.30;;;;;;;;;;5106815;28;20658;-79
2021/10/16 00:54:30;;;;;;;14.20;4.13;;;;;;;;;;5099924;28;20228;-80
2021/10/16 00:57:00;;;;;;;9.60;4.75;;;;;;;;;;5089368;28;20217;-81
2021/10/16 00:59:28;;;;;;;8.20;4.22;;;;;;;;;;5090570;28;20614;-81
2021/10/16 01:01:56;;;;;;;11.65;4.63;;;;;;;;;;5096531;28;20616;-79
2021/10/16 01:04:23;;;;;;;9.00;4.75;;;;;;;;;;5111853;28;20217;-80
2021/10/16 01:06:50;;;;;;;9.98;5.05;;;;;;;;;;5111505;27;20196;-80
2021/10/16 01:09:17;;;;;;;7.75;4.80;;;;;;;;;;5109310;27;20646;-80
2021/10/16 01:11:49;;;;;;;12.60;4.85;;;;;;;;;;5111396;27;20192;-79
2021/10/16 01:14:16;;;;;;;24.08;5.05;;;;;;;;;;5101222;28;20228;-80
2021/10/16 01:16:45;;;;;;;12.95;4.97;;;;;;;;;;5108940;28;20184;-79
2021/10/16 01:19:13;;;;;;;8.77;5.13;;;;;;;;;;5110482;28;20295;-80
2021/10/16 01:21:43;;;;;;;13.50;4.55;;;;;;;;;;5093715;28;20197;-81
2021/10/16 01:24:12;;;;;;;10.48;5.60;;;;;;;;;;5111348;28;20229;-82
2021/10/16 01:26:39;;;;;;;14.32;5.05;;;;;;;;;;5113179;28;20189;-80
2021/10/16 01:29:08;;;;;;;8.43;4.80;;;;;;;;;;5105709;28;20569;-79
2021/10/16 01:31:36;;;;;;;6.93;4.57;;;;;;;;;;5116716;27;20191;-79
2021/10/16 01:34:03;;;;;;;7.43;4.00;;;;;;;;;;5093663;28;20225;-80
2021/10/16 01:36:40;;;;;;;11.90;4.60;;;;;;;;;;5088578;28;20189;-81
2021/10/16 01:39:09;;;;;;;8.00;5.05;;;;;;;;;;5087720;28;20185;-81
2021/10/16 01:41:36;;;;;;;9.00;5.18;;;;;;;;;;5109699;28;20199;-80
2021/10/16 01:44:07;;;;;;;9.43;5.05;;;;;;;;;;5096054;28;20224;-82
2021/10/16 01:46:34;;;;;;;8.30;5.13;;;;;;;;;;5106658;27;20188;-81
2021/10/16 01:49:07;;;;;;;9.57;5.35;;;;;;;;;;5113111;28;20632;-80
2021/10/16 01:51:35;;;;;;;11.32;6.03;;;;;;;;;;5089003;28;20220;-80
2021/10/16 01:54:02;;;;;;;9.55;5.00;;;;;;;;;;5088022;28;20229;-79
2021/10/16 01:56:30;;;;;;;10.23;5.25;;;;;;;;;;5098859;28;20206;-82
2021/10/16 01:58:57;;;;;;;9.93;5.18;;;;;;;;;;5110176;28;20919;-81
2021/10/16 02:01:25;;;;;;;8.80;5.70;;;;;;;;;;5113438;27;20542;-79
2021/10/16 02:03:52;;;;;;;15.20;7.20;;;;;;;;;;5119602;27;20212;-79
2021/10/16 02:06:19;;;;;;;10.80;5.70;;;;;;;;;;5099966;27;20650;-80
2021/10/16 02:08:46;;;;;;;8.40;5.75;;;;;;;;;;5108621;28;20200;-81
2021/10/16 02:11:13;;;;;;;10.35;4.85;;;;;;;;;;5102021;28;20562;-80
2021/10/16 02:13:45;;;;;;;9.90;5.68;;;;;;;;;;5103309;28;20244;-79
2021/10/16 02:16:12;;;;;;;8.15;5.32;;;;;;;;;;5110508;28;20263;-80
2021/10/16 02:18:40;;;;;;;10.27;6.50;;;;;;;;;;5113667;28;20192;-81
2021/10/16 02:21:07;;;;;;;15.13;6.70;;;;;;;;;;5107941;28;20189;-80
2021/10/16 02:23:34;;;;;;;10.13;6.20;;;;;;;;;;5106268;28;20248;-79
2021/10/16 02:26:01;;;;;;;8.38;5.75;;;;;;;;;;5109264;28;20664;-80
2021/10/16 02:28:29;;;;;;;8.95;6.82;;;;;;;;;;5097618;28;20186;-79
2021/10/16 02:30:57;;;;;;;14.32;6.10;;;;;;;;;;5091822;28;20204;-80
2021/10/16 02:33:24;;;;;;;12.38;5.90;;;;;;;;;;5115135;27;20216;-80
2021/10/16 02:35:52;;;;;;;11.38;6.00;;;;;;;;;;5121726;28;20194;-79
2021/10/16 02:38:19;;;;;;;10.25;4.55;;;;;;;;;;5108492;27;20657;-81
2021/10/16 02:40:46;;;;;;;7.53;5.38;;;;;;;;;;5107190;28;20604;-80
2021/10/16 02:43:14;;;;;;;10.18;5.25;;;;;;;;;;5094292;28;20248;-80
2021/10/16 02:45:41;;;;;;;12.25;5.70;;;;;;;;;;5099538;28;20196;-79
2021/10/16 02:48:09;;;;;;;7.53;5.55;;;;;;;;;;5099790;27;20661;-80
2021/10/16 02:50:37;;;;;;;8.98;5.65;;;;;;;;;;5119176;27;20204;-80
2021/10/16 02:53:04;;;;;;;8.90;5.60;;;;;;;;;;5111166;27;20234;-80
2021/10/16 02:55:32;;;;;;;7.63;5.10;;;;;;;;;;5102577;28;20265;-78
2021/10/16 02:57:59;;;;;;;12.75;5.60;;;;;;;;;;5112388;28;20207;-79
2021/10/16 03:00:26;;;;;;;8.95;5.63;;;;;;;;;;5105067;28;20207;-79
2021/10/16 03:02:54;;;;;;;7.63;6.07;;;;;;;;;;5097213;28;20625;-80
2021/10/16 03:05:22;;;;;;;9.95;7.53;;;;;;;;;;5097577;28;20552;-80
2021/10/16 03:07:51;;;;;;;9.68;7.70;;;;;;;;;;5103878;28;20193;-80
2021/10/16 03:10:18;;;;;;;8.95;7.68;;;;;;;;;;5105477;27;20234;-79
2021/10/16 03:12:45;;;;;;;11.82;8.10;;;;;;;;;;5118719;27;20546;-81
2021/10/16 03:15:12;;;;;;;10.95;8.13;;;;;;;;;;5119024;27;20209;-80
2021/10/16 03:17:40;;;;;;;9.13;7.30;;;;;;;;;;5111883;27;20193;-79
2021/10/16 03:20:08;;;;;;;9.43;8.02;;;;;;;;;;5108654;28;20189;-78
2021/10/16 03:22:36;;;;;;;8.93;7.40;;;;;;;;;;5103240;28;20188;-80
2021/10/16 03:25:03;;;;;;;9.48;8.05;;;;;;;;;;5100403;28;20221;-80
2021/10/16 03:27:31;;;;;;;15.68;9.55;;;;;;;;;;5114678;27;20184;-80
2021/10/16 03:29:58;;;;;;;9.43;8.02;;;;;;;;;;5116489;27;20184;-79
2021/10/16 03:32:25;;;;;;;14.88;9.05;;;;;;;;;;5105089;28;20192;-78
2021/10/16 03:34:52;;;;;;;12.57;9.05;;;;;;;;;;5089283;28;20686;-80
2021/10/16 03:37:19;;;;;;;12.50;8.98;;;;;;;;;;5091063;28;20196;-80
2021/10/16 03:39:48;;;;;;;13.40;8.90;;;;;;;;;;5089481;28;20185;-81
2021/10/16 03:42:15;;;;;;;21.45;9.70;;;;;;;;;;5102334;27;20184;-80
2021/10/16 03:44:42;;;;;;;15.90;9.98;;;;;;;;;;5112824;27;20536;-79
2021/10/16 03:47:09;;;;;;;14.25;8.75;;;;;;;;;;5131317;27;20200;-81
2021/10/16 03:49:37;;;;;;;14.63;9.20;;;;;;;;;;5116208;27;20212;-80
2021/10/16 03:52:04;;;;;;;16.80;9.32;;;;;;;;;;5090926;28;20193;-79
2021/10/16 03:54:31;;;;;;;13.93;9.57;;;;;;;;;;5091197;28;20239;-79
2021/10/16 03:57:00;;;;;;;13.48;9.57;;;;;;;;;;5095167;28;20197;-80
2021/10/16 03:59:27;;;;;;;13.57;9.50;;;;;;;;;;5092929;28;20193;-80
2021/10/16 04:01:54;;;;;;;10.73;8.63;;;;;;;;;;5095825;28;20191;-80
2021/10/16 04:04:22;;;;;;;11.07;8.45;;;;;;;;;;5115610;27;20693;-79
2021/10/16 04:06:49;;;;;;;21.95;9.75;;;;;;;;;;5102583;27;20215;-80
2021/10/16 04:09:16;;;;;;;13.38;8.30;;;;;;;;;;5108747;28;20199;-78
2021/10/16 04:11:44;;;;;;;21.65;9.25;;;;;;;;;;5089459;28;20189;-78
2021/10/16 04:14:12;;;;;;;17.23;9.10;;;;;;;;;;5090039;28;20236;-80
2021/10/16 04:16:39;;;;;;;14.20;9.27;;;;;;;;;;5100585;28;20215;-80
2021/10/16 04:19:07;;;;;;;17.50;8.43;;;;;;;;;;5092956;28;20190;-80
2021/10/16 04:21:34;;;;;;;14.25;9.85;;;;;;;;;;5092102;28;20199;-80
2021/10/16 04:24:01;;;;;;;12.00;9.23;;;;;;;;;;5112611;28;20224;-80
2021/10/16 04:26:29;;;;;;;10.68;7.90;;;;;;;;;;5117009;27;20180;-80
2021/10/16 04:28:56;;;;;;;10.77;8.60;;;;;;;;;;5112521;27;20184;-80
2021/10/16 04:31:25;;;;;;;18.05;8.65;;;;;;;;;;5130482;27;20229;-81
2021/10/16 04:33:52;;;;;;;11.85;8.27;;;;;;;;;;5120785;27;20205;-80
2021/10/16 04:36:19;;;;;;;9.38;8.20;;;;;;;;;;5089774;28;20221;-81
2021/10/16 04:38:48;;;;;;;21.50;9.00;;;;;;;;;;5086805;28;20337;-81
2021/10/16 04:41:15;;;;;;;16.63;8.52;;;;;;;;;;5099531;27;20201;-80
2021/10/16 04:43:43;;;;;;;13.93;7.60;;;;;;;;;;5116605;27;20222;-80
2021/10/16 04:46:10;;;;;;;15.90;7.95;;;;;;;;;;5096446;27;20192;-79
2021/10/16 04:48:40;;;;;;;9.05;7.85;;;;;;;;;;5109301;28;20199;-79
2021/10/16 04:51:07;;;;;;;19.55;9.30;;;;;;;;;;5109986;28;20770;-79
2021/10/16 04:53:35;;;;;;;11.95;7.78;;;;;;;;;;5091449;28;20214;-80
2021/10/16 04:56:02;;;;;;;10.63;7.18;;;;;;;;;;5104430;27;20487;-79
2021/10/16 04:58:29;;;;;;;16.55;7.55;;;;;;;;;;5108009;27;20548;-80
2021/10/16 05:00:57;;;;;;;13.77;8.23;;;;;;;;;;5091754;28;20284;-79
2021/10/16 05:03:24;;;;;;;11.93;7.65;;;;;;;;;;5109886;28;20216;-79
2021/10/16 05:05:54;;;;;;;14.80;8.07;;;;;;;;;;5108738;28;20282;-80
2021/10/16 05:08:21;;;;;;;15.65;8.50;;;;;;;;;;5105249;28;20574;-79
2021/10/16 05:10:48;;;;;;;12.30;7.55;;;;;;;;;;5107372;28;20578;-80
2021/10/16 05:13:16;;;;;;;15.73;7.80;;;;;;;;;;5103358;27;21030;-78
2021/10/16 05:15:43;;;;;;;16.23;7.85;;;;;;;;;;5101743;27;20744;-80
2021/10/16 05:18:10;;;;;;;13.85;7.68;;;;;;;;;;5106292;28;20204;-79
2021/10/16 05:20:37;;;;;;;13.65;8.50;;;;;;;;;;5107509;28;20684;-80
2021/10/16 05:23:06;;;;;;;9.27;7.10;;;;;;;;;;5088141;28;20201;-80
2021/10/16 05:25:33;;;;;;;11.98;8.50;;;;;;;;;;5089051;28;20190;-80
2021/10/16 05:28:00;;;;;;;11.20;8.10;;;;;;;;;;5089294;28;21188;-79
2021/10/16 05:30:28;;;;;;;10.75;8.43;;;;;;;;;;5093761;28;20208;-80
2021/10/16 05:32:55;;;;;;;12.57;8.85;;;;;;;;;;5111934;28;20219;-80
2021/10/16 05:35:23;;;;;;;13.15;8.82;;;;;;;;;;5116530;28;20247;-79
2021/10/16 05:37:50;;;;;;;14.18;8.93;;;;;;;;;;5112352;27;20522;-79
2021/10/16 05:40:19;;;;;;;15.45;8.52;;;;;;;;;;5109325;28;20405;-80
2021/10/16 05:42:46;;;;;;;10.80;8.05;;;;;;;;;;5092108;28;20208;-80
2021/10/16 05:45:13;;;;;;;10.57;8.52;;;;;;;;;;5107198;28;20189;-79
2021/10/16 05:47:41;;;;;;;22.98;8.73;;;;;;;;;;5106261;28;20201;-80
2021/10/16 05:50:09;;;;;;;15.40;7.95;;;;;;;;;;5093902;28;20243;-79
2021/10/16 05:52:36;;;;;;;15.73;8.68;;;;;;;;;;5090912;28;20194;-80
2021/10/16 05:55:04;;;;;;;18.17;8.38;;;;;;;;;;5098531;28;20220;-79
2021/10/16 05:57:33;;;;;;;15.10;8.88;;;;;;;;;;5115591;28;20552;-80
2021/10/16 06:00:00;;;;;;;12.70;9.15;;;;;;;;;;5108285;28;20195;-80
2021/10/16 06:02:27;;;;;;;15.25;8.82;;;;;;;;;;5107036;28;20193;-81
2021/10/16 06:04:54;;;;;;;19.55;9.02;;;;;;;;;;5109362;28;20196;-81
2021/10/16 06:07:21;;;;;;;11.00;8.32;;;;;;;;;;5099536;28;20192;-79
2021/10/16 06:09:49;;;;;;;14.35;8.75;;;;;;;;;;5100026;28;20220;-81
2021/10/16 06:12:16;;;;;;;14.68;9.27;;;;;;;;;;5102766;28;20192;-79
2021/10/16 06:14:44;;;;;;;21.13;9.50;;;;;;;;;;5115594;27;20571;-79
2021/10/16 06:17:11;;;;;;;23.23;8.88;;;;;;;;;;5110058;28;20205;-78
2021/10/16 06:19:39;;;;;;;11.00;7.70;;;;;;;;;;5086736;28;20193;-78
2021/10/16 06:22:06;;;;;;;14.18;9.45;;;;;;;;;;5102653;28;20556;-80
2021/10/16 06:24:33;;;;;;;19.90;9.43;;;;;;;;;;5112205;28;20224;-79
2021/10/16 06:27:01;;;;;;;14.80;8.95;;;;;;;;;;5109795;28;20200;-78
2021/10/16 06:29:28;;;;;;;23.60;11.00;;;;;;;;;;5104437;28;20188;-79
2021/10/16 06:31:56;;;;;;;15.90;9.30;;;;;;;;;;5104851;28;20216;-80
2021/10/16 06:34:24;;;;;;;18.73;10.00;;;;;;;;;;5111484;27;20311;-78
2021/10/16 06:36:51;;;;;;;21.38;10.15;;;;;;;;;;5119443;27;20575;-79
2021/10/16 06:39:18;;;;;;;27.55;11.15;;;;;;;;;;5104775;27;20201;-79
2021/10/16 06:41:45;;;;;;;20.15;11.82;;;;;;;;;;5104823;28;20554;-79
2021/10/16 06:44:13;;;;;;;22.88;11.25;;;;;;;;;;5111949;28;20222;-79
2021/10/16 06:46:40;;;;;;;25.50;12.07;;;;;;;;;;5101046;28;20307;-79
2021/10/16 06:49:08;;;;;;;25.88;12.10;;;;;;;;;;5097304;27;20191;-78
2021/10/16 06:51:35;;;;;;;28.10;11.98;;;;;;;;;;5110617;27;20200;-78
2021/10/16 06:54:03;;;;;;;37.28;13.65;;;;;;;;;;5106914;27;20219;-78
2021/10/16 06:56:31;;;;;;;25.92;13.00;;;;;;;;;;5112258;28;20256;-79
2021/10/16 06:58:58;;;;;;;24.58;12.70;;;;;;;;;;5110438;28;20181;-80
2021/10/16 07:01:25;;;;;;;27.30;13.15;;;;;;;;;;5104122;28;20649;-79
2021/10/16 07:03:52;;;;;;;29.25;12.50;;;;;;;;;;5102123;28;20212;-81
2021/10/16 07:06:21;;;;;;;21.98;13.50;;;;;;;;;;5112218;28;20193;-79
2021/10/16 07:08:48;;;;;;;24.52;12.32;;;;;;;;;;5114447;28;20549;-80
2021/10/16 07:11:15;;;;;;;27.60;12.55;;;;;;;;;;5100167;27;20192;-80
2021/10/16 07:13:42;;;;;;;33.58;13.25;;;;;;;;;;5117845;27;20212;-80
2021/10/16 07:16:11;;;;;;;23.50;13.13;;;;;;;;;;5116028;27;20212;-80
2021/10/16 07:18:38;;;;;;;28.90;15.18;;;;;;;;;;5096349;28;20714;-78
2021/10/16 07:21:05;;;;;;;23.13;13.07;;;;;;;;;;5093514;28;20197;-80
2021/10/16 07:23:37;;;;;;;23.15;13.30;;;;;;;;;;5114195;28;20234;-80
2021/10/16 07:26:06;;;;;;;26.83;13.40;;;;;;;;;;5109081;28;20547;-79
2021/10/16 07:28:40;;;;;;;24.80;14.27;;;;;;;;;;5096344;28;20193;-80
2021/10/16 07:31:08;;;;;;;25.67;14.30;;;;;;;;;;5098604;28;20193;-79
2021/10/16 07:33:35;;;;;;;22.00;13.52;;;;;;;;;;5099833;27;20561;-78
2021/10/16 07:36:03;;;;;;;28.45;14.90;;;;;;;;;;5115390;27;20224;-78
2021/10/16 07:38:30;;;;;;;26.25;13.80;;;;;;;;;;5115137;27;20197;-80
2021/10/16 07:40:58;;;;;;;30.17;13.80;;;;;;;;;;5115493;27;20180;-80
2021/10/16 07:43:26;;;;;;;30.15;15.40;;;;;;;;;;5094454;28;20225;-80
2021/10/16 07:45:54;;;;;;;22.20;14.45;;;;;;;;;;5112143;28;20204;-80
2021/10/16 07:48:22;;;;;;;28.80;16.67;;;;;;;;;;5105538;28;20235;-79
2021/10/16 07:50:56;;;;;;;35.47;17.38;;;;;;;;;;5107080;27;20192;-79
2021/10/16 07:53:24;;;;;;;36.08;17.33;;;;;;;;;;5119432;27;20541;-78
2021/10/16 07:55:51;;;;;;;37.47;17.23;;;;;;;;;;5104092;27;20677;-77
2021/10/16 07:58:22;;;;;;;32.55;16.65;;;;;;;;;;5094412;28;20185;-80
2021/10/16 08:03:46;;;;;;;34.03;17.10;;;;;;;;;;5098231;28;20221;-79
2021/10/16 08:06:13;;;;;;;28.35;18.10;;;;;;;;;;5103574;27;20200;-77
2021/10/16 08:08:40;;;;;;;35.38;16.83;;;;;;;;;;5116125;27;20569;-78
2021/10/16 08:11:07;;;;;;;33.72;17.13;;;;;;;;;;5113300;27;20200;-82
2021/10/16 08:13:39;;;;;;;28.10;15.95;;;;;;;;;;5110339;28;20212;-79
2021/10/16 08:16:06;;;;;;;27.38;15.63;;;;;;;;;;5111787;28;20228;-80
2021/10/16 08:18:33;;;;;;;27.48;16.52;;;;;;;;;;5109021;28;20584;-78
2021/10/16 08:21:01;;;;;;;23.77;16.25;;;;;;;;;;5100349;28;20198;-78
2021/10/16 08:23:28;;;;;;;28.95;15.70;;;;;;;;;;5091917;28;20597;-78
2021/10/16 08:25:59;;;;;;;28.52;16.88;;;;;;;;;;5092646;28;20197;-79
2021/10/16 08:28:27;;;;;;;23.08;15.70;;;;;;;;;;5103084;27;20199;-79
2021/10/16 08:30:57;;;;;;;28.88;16.17;;;;;;;;;;5106307;27;20238;-78
2021/10/16 08:33:25;;;;;;;28.77;15.93;;;;;;;;;;5108465;27;20218;-80
2021/10/16 08:35:52;;;;;;;35.85;18.50;;;;;;;;;;5101618;28;21334;-78
2021/10/16 08:38:19;;;;;;;28.08;15.95;;;;;;;;;;5104006;28;20201;-80
2021/10/16 08:40:47;;;;;;;28.75;18.00;;;;;;;;;;5104120;28;20199;-81
2021/10/16 08:43:14;;;;;;;27.20;17.77;;;;;;;;;;5099746;28;20224;-77
2021/10/16 08:45:42;;;;;;;25.17;16.02;;;;;;;;;;5094129;28;20193;-83
2021/10/16 08:48:10;;;;;;;26.83;16.83;;;;;;;;;;5097352;28;20219;-85
2021/10/16 08:50:37;;;;;;;36.43;17.60;;;;;;;;;;5117065;27;20930;-84
2021/10/16 08:53:05;;;;;;;22.25;14.43;;;;;;;;;;5116776;27;20480;-84
2021/10/16 08:55:32;;;;;;;24.60;16.10;;;;;;;;;;5126070;27;20214;-84
2021/10/16 08:57:59;;;;;;;26.60;15.30;;;;;;;;;;5132956;27;20437;-85
2021/10/16 09:00:42;;;;;;;27.60;15.67;;;;;;;;;;5115856;27;20458;-86
2021/10/16 09:03:19;;;;;;;31.80;15.97;;;;;;;;;;5109914;28;20818;-82
2021/10/16 09:06:01;;;;;;;29.53;16.57;;;;;;;;;;5096359;28;20507;-85
2021/10/16 09:08:29;;;;;;;27.93;17.10;;;;;;;;;;5104645;27;20454;-85
2021/10/16 09:11:11;;;;;;;26.00;15.30;;;;;;;;;;5121460;27;20441;-83
2021/10/16 09:13:43;;;;;;;31.93;18.40;;;;;;;;;;5100977;27;20474;-83
2021/10/16 09:16:19;;;;;;;28.30;17.10;;;;;;;;;;5107992;28;20489;-84
2021/10/16 09:18:52;;;;;;;28.53;18.00;;;;;;;;;;5109072;28;20442;-85
2021/10/16 09:21:19;;;;;;;30.80;18.27;;;;;;;;;;5099738;28;20459;-83
2021/10/16 09:23:46;;;;;;;29.47;17.23;;;;;;;;;;5106112;27;20554;-86
2021/10/16 09:26:14;;;;;;;31.27;16.83;;;;;;;;;;5112578;27;20454;-87
2021/10/16 09:28:41;;;;;;;25.57;16.23;;;;;;;;;;5127422;27;20449;-85
2021/10/16 09:31:11;;;;;;;23.60;16.10;;;;;;;;;;5115484;27;21019;-85
2021/10/16 09:33:46;;;;;;;30.27;16.17;;;;;;;;;;5110953;28;20970;-86
2021/10/16 09:36:23;;;;;;;31.20;18.77;;;;;;;;;;5106989;28;21046;-89
2021/10/16 09:38:50;;;;;;;25.07;16.70;;;;;;;;;;5095515;28;20449;-86
2021/10/16 09:41:25;;;;;;;33.03;19.13;;;;;;;;;;5112729;28;20461;-83
2021/10/16 09:43:52;;;;;;;31.17;18.40;;;;;;;;;;5121206;27;20501;-82
2021/10/16 09:46:20;;;;;;;31.27;18.33;;;;;;;;;;5130016;27;20436;-82
2021/10/16 09:48:47;;;;;;;34.97;19.77;;;;;;;;;;5116864;27;20454;-84
2021/10/16 09:51:15;;;;;;;34.03;18.17;;;;;;;;;;5109315;28;21062;-83
2021/10/16 09:53:46;;;;;;;29.10;18.97;;;;;;;;;;5101303;28;20933;-86
2021/10/16 09:56:13;;;;;;;32.50;19.50;;;;;;;;;;5108746;28;20842;-83
2021/10/16 09:58:41;;;;;;;29.77;18.30;;;;;;;;;;5108403;28;20772;-85
2021/10/16 10:01:09;;;;;;;25.43;17.40;;;;;;;;;;5102907;28;20462;-84
2021/10/16 10:03:38;;;;;;;24.03;17.70;;;;;;;;;;5094982;28;21006;-86
2021/10/16 10:06:05;;;;;;;28.87;18.93;;;;;;;;;;5113409;28;20448;-84
2021/10/16 10:08:34;;;;;;;29.73;18.67;;;;;;;;;;5107930;28;20454;-85
2021/10/16 10:11:03;;;;;;;32.70;18.90;;;;;;;;;;5101293;27;20433;-85
2021/10/16 10:13:30;;;;;;;27.07;16.80;;;;;;;;;;5114277;27;20473;-82
2021/10/16 10:15:57;;;;;;;23.40;16.67;;;;;;;;;;5125633;27;20453;-83
2021/10/16 10:21:14;;;;;;;33.37;18.70;;;;;;;;;;5104237;28;20458;-82
2021/10/16 10:23:53;;;;;;;37.07;19.97;;;;;;;;;;5092907;28;20470;-84
2021/10/16 10:26:26;;;;;;;35.80;19.90;;;;;;;;;;5095792;28;20462;-81
2021/10/16 10:28:55;;;;;;;31.00;19.67;;;;;;;;;;5102398;27;20946;-81
2021/10/16 10:31:37;;;;;;;29.43;17.60;;;;;;;;;;5106956;27;20507;-80
2021/10/16 10:34:04;;;;;;;27.83;18.77;;;;;;;;;;5128924;27;20465;-80
2021/10/16 10:36:44;;;;;;;29.17;19.20;;;;;;;;;;5129863;27;20985;-79
2021/10/16 10:39:26;;;;;;;25.57;18.30;;;;;;;;;;5129900;27;20646;-81
2021/10/16 10:41:55;;;;;;;28.67;18.83;;;;;;;;;;5118650;27;20458;-79
2021/10/16 10:44:36;;;;;;;26.00;18.40;;;;;;;;;;5088865;28;20494;-81
2021/10/16 10:47:19;;;;;;;30.37;19.80;;;;;;;;;;5106083;27;20792;-82
2021/10/16 10:49:46;;;;;;;32.00;20.90;;;;;;;;;;5109934;27;20437;-82
2021/10/16 10:52:14;;;;;;;36.77;19.80;;;;;;;;;;5130600;27;20440;-83
2021/10/16 10:54:41;;;;;;;33.17;20.90;;;;;;;;;;5129040;27;20457;-79
2021/10/16 10:57:10;;;;;;;34.60;20.23;;;;;;;;;;5128143;27;20473;-82
2021/10/16 10:59:52;;;;;;;30.83;20.90;;;;;;;;;;5124597;27;20460;-86
2021/10/16 11:02:30;;;;;;;32.30;19.80;;;;;;;;;;5108422;27;20434;-82
2021/10/16 11:04:59;;;;;;;27.27;19.07;;;;;;;;;;5114715;27;20491;-84
2021/10/16 11:07:37;;;;;;;35.40;21.43;;;;;;;;;;5108709;28;20450;-81
2021/10/16 11:10:05;;;;;;;30.83;19.10;;;;;;;;;;5108341;28;20503;-84
2021/10/16 11:12:35;;;;;;;28.20;19.27;;;;;;;;;;5108279;28;20529;-84
2021/10/16 11:15:03;;;;;;;29.87;19.60;;;;;;;;;;5107996;28;20797;-81
2021/10/16 11:17:35;;;;;;;31.40;19.10;;;;;;;;;;5115775;27;20478;-84
2021/10/16 11:20:04;;;;;;;27.73;18.80;;;;;;;;;;5117130;27;20448;-83
2021/10/16 11:22:46;;;;;;;26.70;16.23;;;;;;;;;;5128837;27;20477;-84
2021/10/16 11:25:17;;;;;;;28.47;16.50;;;;;;;;;;5128104;27;20476;-81
2021/10/16 11:27:59;;;;;;;28.37;17.07;;;;;;;;;;5130318;27;20441;-83
2021/10/16 11:30:26;;;;;;;22.53;14.90;;;;;;;;;;5126656;27;20471;-81
2021/10/16 11:33:00;;;;;;;23.83;15.00;;;;;;;;;;5110532;28;20451;-83
2021/10/16 11:35:27;;;;;;;24.93;15.30;;;;;;;;;;5108981;28;20442;-80
2021/10/16 11:37:54;;;;;;;26.30;16.00;;;;;;;;;;5111045;28;20505;-82
2021/10/16 11:40:22;;;;;;;28.53;14.80;;;;;;;;;;5115168;27;20430;-83
2021/10/16 11:42:52;;;;;;;24.87;14.20;;;;;;;;;;5104426;28;20454;-81
2021/10/16 11:45:20;;;;;;;29.47;16.30;;;;;;;;;;5107520;28;20916;-84
2021/10/16 11:47:49;;;;;;;30.00;14.67;;;;;;;;;;5107975;28;20448;-81
2021/10/16 11:50:18;;;;;;;20.30;14.00;;;;;;;;;;5108200;28;20529;-81
2021/10/16 11:52:46;;;;;;;30.33;17.13;;;;;;;;;;5108069;28;20467;-81
2021/10/16 11:55:15;;;;;;;21.67;13.77;;;;;;;;;;5109472;28;20957;-84
2021/10/16 11:57:42;;;;;;;21.07;12.53;;;;;;;;;;5109877;28;20478;-83
2021/10/16 12:00:24;;;;;;;20.87;13.50;;;;;;;;;;5110679;27;20442;-86
2021/10/16 12:02:53;;;;;;;29.13;15.90;;;;;;;;;;5105700;27;20455;-80
2021/10/16 12:05:21;;;;;;;20.73;12.30;;;;;;;;;;5122319;27;20434;-82
2021/10/16 12:07:49;;;;;;;18.03;11.17;;;;;;;;;;5128690;27;20439;-80
2021/10/16 12:10:18;;;;;;;17.13;9.17;;;;;;;;;;5128922;27;20454;-82
2021/10/16 12:12:56;;;;;;;13.77;8.60;;;;;;;;;;5128821;27;20804;-79
2021/10/16 12:15:23;;;;;;;19.20;8.30;;;;;;;;;;5118995;27;20477;-84
2021/10/16 12:17:50;;;;;;;9.80;5.00;;;;;;;;;;5109504;28;20485;-82
2021/10/16 12:20:19;;;;;;;11.43;5.50;;;;;;;;;;5109158;28;20443;-80
2021/10/16 12:23:01;;;;;;;10.40;4.17;;;;;;;;;;5111083;27;20446;-79
2021/10/16 12:25:28;;;;;;;10.53;5.63;;;;;;;;;;5105311;27;20548;-79
2021/10/16 12:28:03;;;;;;;7.30;3.30;;;;;;;;;;5124085;27;20445;-82
2021/10/16 12:30:30;;;;;;;10.07;3.37;;;;;;;;;;5127182;27;20444;-85
2021/10/16 12:33:12;;;;;;;11.27;3.90;;;;;;;;;;5127938;27;20453;-80
2021/10/16 12:35:41;;;;;;;10.73;3.87;;;;;;;;;;5126944;27;20938;-81
2021/10/16 12:38:08;;;;;;;10.30;4.47;;;;;;;;;;5111372;27;20482;-82
2021/10/16 12:40:36;;;;;;;10.70;4.47;;;;;;;;;;5106768;27;20860;-80
2021/10/16 12:43:04;;;;;;;11.93;5.00;;;;;;;;;;5115267;27;20522;-81
2021/10/16 12:45:38;;;;;;;11.20;5.60;;;;;;;;;;5107499;28;20434;-81
2021/10/16 12:48:20;;;;;;;11.20;5.43;;;;;;;;;;5108232;28;20461;-83
2021/10/16 12:50:53;;;;;;;12.67;5.97;;;;;;;;;;5091037;28;20936;-81
2021/10/16 12:53:20;;;;;;;13.97;6.20;;;;;;;;;;5087916;28;21190;-81
2021/10/16 12:55:47;;;;;;;15.00;4.80;;;;;;;;;;5105110;27;20453;-80
2021/10/16 12:58:15;;;;;;;8.33;3.73;;;;;;;;;;5115067;27;20489;-86
2021/10/16 13:00:43;;;;;;;9.07;3.67;;;;;;;;;;5099134;28;20453;-80
2021/10/16 13:03:12;;;;;;;5.77;2.77;;;;;;;;;;5109858;28;20450;-80
2021/10/16 13:05:39;;;;;;;10.67;3.57;;;;;;;;;;5109570;28;20833;-81
2021/10/16 13:08:08;;;;;;;9.67;3.20;;;;;;;;;;5108649;28;20466;-79
2021/10/16 13:10:36;;;;;;;8.50;3.00;;;;;;;;;;5111391;27;20469;-80
2021/10/16 13:13:03;;;;;;;8.30;3.47;;;;;;;;;;5116476;27;20445;-81
2021/10/16 13:15:31;;;;;;;6.00;3.20;;;;;;;;;;5113068;27;20434;-80
2021/10/16 13:17:58;;;;;;;8.23;2.80;;;;;;;;;;5110985;28;20478;-80
2021/10/16 13:20:25;;;;;;;8.20;3.43;;;;;;;;;;5109534;28;20902;-80
2021/10/16 13:22:52;;;;;;;9.30;3.27;;;;;;;;;;5109985;28;20463;-80
2021/10/16 13:25:21;;;;;;;8.03;3.63;;;;;;;;;;5109851;28;20817;-80
2021/10/16 13:27:48;;;;;;;8.57;3.10;;;;;;;;;;5112202;28;20883;-80
2021/10/16 13:30:17;;;;;;;8.77;3.30;;;;;;;;;;5111877;28;20438;-80
2021/10/16 13:32:45;;;;;;;7.60;3.07;;;;;;;;;;5112663;27;20453;-80
2021/10/16 13:35:13;;;;;;;10.23;3.43;;;;;;;;;;5116162;27;20433;-80
2021/10/16 13:37:40;;;;;;;10.30;4.20;;;;;;;;;;5112412;28;20470;-80
2021/10/16 13:40:07;;;;;;;8.53;3.80;;;;;;;;;;5109537;28;20430;-80
2021/10/16 13:42:38;;;;;;;9.13;3.53;;;;;;;;;;5109620;28;20474;-80
2021/10/16 13:45:05;;;;;;;5.10;3.10;;;;;;;;;;5109628;28;20435;-80
2021/10/16 13:47:32;;;;;;;21.83;3.77;;;;;;;;;;5109990;28;20462;-80
2021/10/16 13:50:00;;;;;;;8.43;3.57;;;;;;;;;;5111443;28;20461;-80
2021/10/16 13:52:27;;;;;;;7.03;2.77;;;;;;;;;;5111698;28;20447;-80
2021/10/16 13:54:54;;;;;;;7.90;3.43;;;;;;;;;;5113323;28;21037;-80
2021/10/16 13:57:21;;;;;;;8.10;3.20;;;;;;;;;;5115499;27;20475;-79
2021/10/16 13:59:50;;;;;;;9.70;3.20;;;;;;;;;;5113695;27;20461;-80
2021/10/16 14:02:17;;;;;;;5.93;2.97;;;;;;;;;;5108856;28;20454;-80
2021/10/16 14:04:45;;;;;;;6.93;3.30;;;;;;;;;;5109380;28;20801;-81
2021/10/16 14:07:12;;;;;;;6.83;3.63;;;;;;;;;;5109330;28;20438;-80
2021/10/16 14:09:40;;;;;;;6.17;2.80;;;;;;;;;;5109674;28;20766;-80
2021/10/16 14:12:07;;;;;;;8.20;3.40;;;;;;;;;;5115524;27;20614;-80
2021/10/16 14:14:35;;;;;;;6.47;3.77;;;;;;;;;;5114529;28;20447;-81
2021/10/16 14:17:03;;;;;;;8.37;3.20;;;;;;;;;;5108529;28;20871;-80
2021/10/16 14:19:30;;;;;;;6.83;2.60;;;;;;;;;;5108377;28;20478;-80
2021/10/16 14:24:39;;;;;;;9.63;3.70;;;;;;;;;;5084786;28;20463;-81
2021/10/16 14:27:06;;;;;;;8.43;3.50;;;;;;;;;;5083571;28;20437;-80
2021/10/16 14:29:33;;;;;;;9.90;3.33;;;;;;;;;;5083276;28;20442;-80
2021/10/16 14:32:00;;;;;;;4.93;2.80;;;;;;;;;;5085702;28;20435;-79
2021/10/16 14:34:29;;;;;;;9.03;2.60;;;;;;;;;;5085836;28;20460;-81
2021/10/16 14:36:56;;;;;;;4.73;3.23;;;;;;;;;;5086182;28;20435;-82
2021/10/16 14:39:24;;;;;;;4.77;2.93;;;;;;;;;;5086043;28;20475;-82
2021/10/16 14:41:51;;;;;;;6.27;3.30;;;;;;;;;;5089891;28;20470;-82
2021/10/16 14:44:18;;;;;;;4.20;2.30;;;;;;;;;;5112082;28;20450;-81